Greyhound Lines for Cbj Ithaca

Cbj Ithaca (Littermates)
R BdF7/25/2015IRUSKA ALL STAR - CBJ CHOC O LAT
Owned by carmen j inc and runs for the Clear Lakes Racing llc

Print Chart

Track Race Date Dist.   Track
Cond
Wt. Post Off Call1 Bye1 Call2 Bye2 Fin. Fin.
Bye
  Fav. Odds Grd Comments
OP 7/30/2018E-11 550 31.34 F 61 6 5 6 7 8 15.5 32.44 9.00 B Ran Into Rival 1st
OP 7/26/2018E-15 550 31.06 F 61 1 1 3 6 7 6.5 31.50 3.50 B Overtaken, Shtff Mid
OP 7/21/2018A-09 550 30.64 F 62 7 6 7 7 8 15.5 31.74 7.00 B Blocked 1st Turn Mid
OP 7/16/2018E-03 550 30.74 F 61.5 1 2 3 3 2 4 31.01 10.10 B Good Try Midtrack
OP 7/12/2018E-09 550 30.97 F 61.5 6 6 8 8 8 15.5 32.04 16.60 B No Room 1st Turn
OP 7/8/2018A-02 550 31.33 F 62 8 8 2 2 1 1.5 31.33 * 2.50 C Up In Time Midtrack
OP 6/27/2018E-12 550 31.19 F 62 2 2 2 3 5 3.5 31.44 4.00 B Never Far Off Inside
OP 6/23/2018A-15 550 30.76 F 62 1 1 2 2 3 2.5 30.95 6.10 B Factor Thruout Mdtrk
OP 6/20/2018A-15 550 30.83 F 61.5 6 5 5 4 4 6.5 31.29 11.00 B Decent Effort Inside
OP 6/16/2018A-04 550 31.29 F 61 1 1 4 5 5 5.5 31.66 5.00 B Early Speed Midtrack
OP 6/11/2018E-13 550 31.12 F 60.5 1 1 2 1 1.5 1 2.5 31.12 * 1.80 C Determined Winner Mt
OP 6/8/2018E-04 550 30.80 F 61 8 7 7 7 7 10 31.51 5.10 B Never Varied Mdtrk
OP 6/4/2018E-04 550 31.05 F 61 3 7 7 6 6 8 31.61 4.00 B Crowded Early Mdtrk
OP 5/31/2018E-15 550 31.06 F 61 8 5 5 4 4 4.5 31.36 3.50 B Gaining Ground Mdtrk
OP 5/27/2018A-07 550 31.36 S 61.5 4 2 4 4 3 2.5 31.52 7.50 B Always A Factor Mid
OP 5/24/2018E-07 550 30.41 F 62 1 1 2 2 2 5 30.77 8.00 B Led Early, Chased Mt
OP 5/20/2018A-11 550 31.46 S 62 3 5 7 7 7 6.5 31.91 9.00 B Blocked 1st Turn Mid
OP 5/17/2018E-09 550 30.78 F 61.5 7 2 1 1.5 1 1 1 1.5 30.78 5.80 C Defended Lead Mdtrk
OP 5/13/2018A-12 550 31.06 F 62 8 3 2 2 2 .5 31.11 4.50 C Fine Try Outside
OP 5/10/2018E-03 550 31.02 F 62 4 1 2 4 4 4.5 31.34 6.00 C Out Fast, Bumped Mid
OP 5/6/2018A-13 550 30.76 F 62 4 1 4 3 2 5.5 31.13 16.60 C Rallied Midtrack
OP 5/3/2018E-05 550 31.36 F 61.5 5 3 8 7 7 10 32.06 4.30 C Sandwiched 1st Tn Mt
OP 4/29/2018A-02 550 30.95 F 62 2 4 7 8 8 20.5 32.39 3.00 C Collided 1st Turn
OP 4/26/2018E-08 550 30.73 F 61.5 5 1 2 2 2 2 30.86 4.50 C Solid Bid Midtrack
OP 4/21/2018E-12 550 31.07 F 61 2 3 7 7 7 8 31.63 8.00 C Shutoff Early Mdtrk
OP 4/18/2018A-15 550 30.26 F 62 5 2 3 4 5 9.5 30.94 35.50 B Pressing, Sqzd Back
OP 4/14/2018A-04 550 31.33 F 62 5 3 6 8 7 7 31.83 9.50 B Shutoff 1st Tn Rail
OP 4/11/2018A-09 550 30.81 F 62 6 3 4 4 4 4.5 31.14 20.20 B Bmpd 1st, Evenly Mid
OP 4/7/2018A-05 550 30.94 F 62.5 8 2 1 3 1 4 1 5.5 30.94 14.10 C Widening Margin Mid
OP 4/4/2018A-02 550 31.17 F 60 4 6 8 8 8 17 32.37 9.00 C No Room, Sqzd Back
OP 3/29/2018E-13 550 30.73 F 60.5 7 7 8 8 8 15.5 31.82 12.50 C Bumped 1st Turn Mid
OP 3/24/2018E-02 550 31.17 F 61 5 5 3 2 2 7 31.66 7.00 C Good Effort Midtrack
OP 3/21/2018A-13 550 31.06 F 61.5 5 7 7 5 5 8.5 31.66 11.00 C Some Advance Mdtrk
OP 3/17/2018A-02 550 31.34 F 62 4 4 3 4 4 11.5 32.13 * 3.00 C Contact Late Mdtrk
OP 3/12/2018E-12 550 30.60 F 62 6 2 4 6 6 15 31.65 18.60 B Early Try, Wknd Mid
OP 3/9/2018E-11 550 31.07 F 61.5 2 5 7 7 7 9.5 31.72 8.40 B Never Figured Mdtrk
OP 3/5/2018E-11 550 31.18 F 61.5 6 1 2 5 6 8 31.75 23.30 B Early Speed Midtrack
OP 3/1/2018E-13 550 31.03 F 61.5 1 1 2 2 1 ns 31.03 6.30 C Wanted It More Mdtrk
OP 2/24/2018E-12 550 31.10 F 61.5 6 8 7 6 6 8.5 31.68 4.60 C Contact Early Mdtrk
OP 2/21/2018E-12 550 31.32 F 61.5 7 1 1 1.5 1 2 2 1 31.38 6.60 C Almost Had It Inside
OP 2/17/2018E-02 550 31.24 F 61.5 4 1 1 3.5 1 3.5 1 5.5 31.24 3.70 D Going Away Midtrack
OP 2/14/2018E-06 550 31.70 F 62 7 2 3 2 2 ns 31.71 4.10 D Outnodded Rail
OP 2/10/2018A-14 550 30.77 F 61.5 6 5 7 6 7 12.5 31.63 6.00 D Nudged Back 1st Mid
OP 2/5/2018E-13 550 30.67 F 62 8 7 8 8 8 16 31.78 11.00 C Blocked 1st Turn Mid
OP 2/2/2018E-03 550 31.31 F 62 7 2 7 7 7 8.5 31.90 6.10 C Bumped 1st Turn
OP 1/29/2018S-07 550 31.40 F 61 2 1 2 2 1 hd 31.40 ----- Scl Proved Best Midtrack
OP 12/9/2017A-02 550 31.26 F 62 8 4 5 8 8 11.5 32.08 5.10 C Cutoff 1st Turn Mid
OP 12/6/2017E-02 550 31.43 F 62 7 4 3 3 3 3.5 31.66 8.20 C Evenly Midtrack
OP 12/2/2017A-07 550 30.66 F 62.5 5 2 8 8 8 13.5 31.61 8.50 B Shffld Bck 1st Mdtrk
OP 11/27/2017E-12 550 31.02 F 62.5 1 1 5 6 6 13.5 31.98 11.00 B Outrushed Early Mid
OP 11/18/2017A-04 550 30.75 F 62 1 2 4 8 8 15 31.80 * 2.00 B Early Threat, Faded
OP 11/15/2017A-04 550 31.12 F 62.5 8 4 1 2 1 2 1 .5 31.12 5.10 C Held Gamely Midtrack
OP 11/11/2017A-15 550 31.01 F 62.5 7 7 7 8 8 13.5 31.95 13.00 B No Factor
OP 11/2/2017E-04 550 31.18 F 62 8 6 5 8 8 OOP 5.10 B Jammed, Fell Far Tn
OP 10/29/2017A-07 550 31.48 F 62 7 6 6 7 7 6 31.90 6.00 B Uneventful Trip Mid
OP 10/26/2017E-02 550 31.18 F 62 3 2 1 2 1 2 1 2.5 31.18 9.30 C Led Firmly Midtrack
OP 10/22/2017A-05 550 31.44 F 62 1 1 6 7 7 18.5 32.72 8.00 C Outrushed & Blocked
OP 10/19/2017S-01 550 31.73 F 62 6 3 4 5 3 7.5 32.24 ----- Scl Decent Try Midtrack
OP 9/25/2017E-05 660 38.28 F 62 7 5 4 5 8 13.5 39.21 9.00 C Shutoff Fr Tn, Faded
OP 9/20/2017E-14 660 38.35 F 61.5 1 2 1 2 1 2 1 3 38.35 3.60 D Grabbed Ld Early Ins
OP 9/16/2017E-02 660 38.53 F 62 3 4 6 7 8 8 39.09 6.50 C Jammed Early Mdtrk
OP 9/8/2017A-02 550 31.12 F 62 2 4 4 6 6 4.5 31.44 5.00 C Shutoff Twice Mdtrk
OP 9/4/2017A-13 550 30.49 F 62 7 6 8 8 8 18.5 31.80 * 2.60 C Pinched Back 1st Tn
OP 9/1/2017E-13 550 31.58 F 62 1 2 3 4 3 4.5 31.90 * 1.00 C Wanted Lead, Shutoff
OP 8/25/2017E-02 550 31.38 F 62 7 5 8 8 7 11.5 32.17 * 1.90 B Never Figured Inside
OP 8/21/2017E-04 550 31.26 F 62 2 3 4 4 3 4 31.55 * 2.60 B Blocked 1st Turn Mid
OP 8/18/2017E-12 550 31.00 F 62 3 4 5 5 5 6.5 31.46 5.50 B Bumped 1st Tn Inside
OP 8/14/2017E-05 550 30.98 F 62 4 6 6 6 7 8.5 31.56 5.10 B Shutoff Ent 1st Mid
OP 8/11/2017E-13 550 31.05 F 61.5 2 2 1 1.5 1 3 1 4 31.05 * 3.20 C Extending Midtrack
OP 8/7/2017S-09 550 31.46 F 61 8 4 3 3 2 2.5 31.62 ----- Scl Factor Thruout Mdtrk
OP 7/5/2017E-05 550 31.11 F 61 5 5 4 2 2 .5 31.16 * 2.10 C Reeling In Leader Mt
OP 7/2/2017A-02 550 31.33 F 61.5 2 5 4 3 2 2 31.48 * 2.00 C Shutoff, Gaining Mid
OP 6/28/2017E-05 550 30.86 F 61.5 7 2 2 3 3 3.5 31.09 * 2.00 C Had Early Lead Mdtrk
OP 6/24/2017E-13 550 30.70 F 61.5 3 1 3 3 3 6 31.13 3.50 C Contact 1st Turn Mid
OP 6/21/2017A-13 550 30.69 F 61.5 8 7 3 4 3 7.5 31.22 * 1.50 C Decent Effort Mdtrk
OP 6/17/2017A-02 550 31.09 F 61.5 1 1 7 7 7 8.5 31.67 * 0.60 C Crwdd 1st, Shffld Bk
OP 6/14/2017A-14 550 30.82 F 61.5 1 2 1 1.5 1 7 1 5 30.82 * 0.90 D Hit, Still Ticking
OP 6/10/2017A-01 550 31.02 F 62 1 1 1 1 1 3 1 5 31.02 * 0.30 M Quick Control Mdtrk
OP 6/5/2017S-08 550 30.90 F 60.5 2 1 1 1 1 3 1 4.5 30.90 ----- Scl Not To Be Denied Mid
OP 6/1/2017S-08 550 31.16 F 61 1 1 1 1 1 2.5 1 3.5 31.16 ----- Scl Box To Wire Midtrack
<< Race Replays 10/19 >>
S
M
T
W
T
F
S
1 2 3 4 5
6 7 8 9 10 11 12
13 14 15 16 17 18 19
20 21 22 23 24 25 26
27 28 29 30 31